createdAt,value
2018-08-18T00:00:58.636Z,14.63
2018-08-18T00:01:58.587Z,14.68
2018-08-18T00:02:58.541Z,14.66
2018-08-18T00:03:58.492Z,14.65
2018-08-18T00:04:58.468Z,14.62
2018-08-18T00:05:58.397Z,14.65
2018-08-18T00:06:58.353Z,14.68
2018-08-18T00:07:58.297Z,14.65
2018-08-18T00:08:58.248Z,14.69
2018-08-18T00:09:58.224Z,14.66
2018-08-18T00:10:58.153Z,14.69
2018-08-18T00:11:58.101Z,14.68
2018-08-18T00:12:58.052Z,14.78
2018-08-18T00:13:58.001Z,14.70
2018-08-18T00:14:57.977Z,14.74
2018-08-18T00:15:57.905Z,14.69
2018-08-18T00:16:57.857Z,14.78
2018-08-18T00:17:57.810Z,14.77
2018-08-18T00:18:57.764Z,14.82
2018-08-18T00:19:57.737Z,14.70
2018-08-18T00:20:57.668Z,14.74
2018-08-18T00:21:57.616Z,14.74
2018-08-18T00:22:57.571Z,14.69
2018-08-18T00:23:57.523Z,14.77
2018-08-18T00:24:57.498Z,14.77
2018-08-18T00:25:57.418Z,14.74
2018-08-18T00:26:57.370Z,14.78
2018-08-18T00:27:57.327Z,14.69
2018-08-18T00:28:57.279Z,14.65
2018-08-18T00:29:57.263Z,14.68
2018-08-18T00:30:57.180Z,14.58
2018-08-18T00:31:57.133Z,14.63
2018-08-18T00:32:57.082Z,14.50
2018-08-18T00:33:57.034Z,14.48
2018-08-18T00:34:56.982Z,14.51
2018-08-18T00:35:56.959Z,14.48
2018-08-18T00:36:56.890Z,14.55
2018-08-18T00:37:56.849Z,14.56
2018-08-18T00:38:56.788Z,14.56
2018-08-18T00:39:56.738Z,14.56
2018-08-18T00:40:56.714Z,14.61
2018-08-18T00:41:56.641Z,14.48
2018-08-18T00:42:56.595Z,14.58
2018-08-18T00:43:56.544Z,14.55
2018-08-18T00:44:56.498Z,14.50
2018-08-18T00:45:56.473Z,14.47
2018-08-18T00:46:56.400Z,14.43
2018-08-18T00:47:56.352Z,14.50
2018-08-18T00:48:56.304Z,14.48
2018-08-18T00:49:56.249Z,14.44
2018-08-18T00:50:56.235Z,14.43
2018-08-18T00:51:56.159Z,14.47
2018-08-18T00:52:56.108Z,14.43
2018-08-18T00:53:56.057Z,14.40
2018-08-18T00:54:56.012Z,14.44
2018-08-18T00:55:55.986Z,14.47
2018-08-18T00:56:55.911Z,14.45
2018-08-18T00:57:55.859Z,14.47
2018-08-18T00:58:55.815Z,14.50
2018-08-18T00:59:55.771Z,14.43
2018-08-18T01:00:55.740Z,14.50
2018-08-18T01:01:55.674Z,14.55
2018-08-18T01:02:55.622Z,14.58
2018-08-18T01:03:55.572Z,14.55
2018-08-18T01:04:55.525Z,14.55
2018-08-18T01:05:55.505Z,14.61
2018-08-18T01:06:55.427Z,14.51
2018-08-18T01:07:55.377Z,14.55
2018-08-18T01:08:55.328Z,14.50
2018-08-18T01:09:55.278Z,14.56
2018-08-18T01:10:55.318Z,14.50
2018-08-18T01:11:55.286Z,14.44
2018-08-18T01:12:55.199Z,14.43
2018-08-18T01:13:55.097Z,14.44
2018-08-18T01:14:55.090Z,14.44
2018-08-18T01:15:55.012Z,14.43
2018-08-18T01:16:54.939Z,14.43
2018-08-18T01:17:54.898Z,14.38
2018-08-18T01:18:54.854Z,14.38
2018-08-18T01:19:54.795Z,14.36
2018-08-18T01:20:54.786Z,14.38
2018-08-18T01:21:54.696Z,14.45
2018-08-18T01:22:54.652Z,14.45
2018-08-18T01:23:54.599Z,14.40
2018-08-18T01:24:54.553Z,14.43
2018-08-18T01:25:54.501Z,14.38
2018-08-18T01:26:54.518Z,14.45
2018-08-18T01:27:54.408Z,14.37
2018-08-18T01:28:54.388Z,14.41
2018-08-18T01:29:54.304Z,14.38
2018-08-18T01:30:54.286Z,14.38
2018-08-18T01:31:54.231Z,14.40
2018-08-18T01:32:54.162Z,14.33
2018-08-18T01:33:54.115Z,14.37
2018-08-18T01:34:54.064Z,14.25
2018-08-18T01:35:54.016Z,14.25
2018-08-18T01:36:53.994Z,14.26
2018-08-18T01:37:53.915Z,14.28
2018-08-18T01:38:53.867Z,14.26
2018-08-18T01:39:53.818Z,14.23
2018-08-18T01:40:53.783Z,14.23
2018-08-18T01:41:53.753Z,14.26
2018-08-18T01:42:53.671Z,14.22
2018-08-18T01:43:53.651Z,14.20
2018-08-18T01:44:53.581Z,14.23
2018-08-18T01:45:53.527Z,14.18
2018-08-18T01:46:53.501Z,14.14
2018-08-18T01:47:53.434Z,14.18
2018-08-18T01:48:53.379Z,14.19
2018-08-18T01:49:53.335Z,14.23
2018-08-18T01:50:53.285Z,14.10
2018-08-18T01:51:53.258Z,14.11
2018-08-18T01:52:53.185Z,14.08
2018-08-18T01:53:53.138Z,14.08
2018-08-18T01:54:53.092Z,14.03
2018-08-18T01:55:53.041Z,14.01
2018-08-18T01:56:53.015Z,13.96
2018-08-18T01:57:52.948Z,13.97
2018-08-18T01:58:52.890Z,13.97
2018-08-18T01:59:52.846Z,13.97
2018-08-18T02:00:52.799Z,13.96
2018-08-18T02:01:52.775Z,13.96
2018-08-18T02:02:52.693Z,13.95
2018-08-18T02:03:52.647Z,13.92
2018-08-18T02:04:52.599Z,13.93
2018-08-18T02:05:52.552Z,13.93
2018-08-18T02:06:52.527Z,13.89
2018-08-18T02:07:52.461Z,13.92
2018-08-18T02:08:52.405Z,13.89
2018-08-18T02:09:52.354Z,13.92
2018-08-18T02:10:52.309Z,13.93
2018-08-18T02:11:52.292Z,13.95
2018-08-18T02:12:52.211Z,13.96
2018-08-18T02:13:52.161Z,13.95
2018-08-18T02:14:52.112Z,13.95
2018-08-18T02:15:52.062Z,13.96
2018-08-18T02:16:52.016Z,13.95
2018-08-18T02:17:51.986Z,13.96
2018-08-18T02:18:51.917Z,13.95
2018-08-18T02:19:51.866Z,13.95
2018-08-18T02:20:51.815Z,13.93
2018-08-18T02:21:51.773Z,13.97
2018-08-18T02:22:51.740Z,13.93
2018-08-18T02:23:51.683Z,13.95
2018-08-18T02:24:51.623Z,13.95
2018-08-18T02:25:51.569Z,13.96
2018-08-18T02:26:51.527Z,14.00
2018-08-18T02:27:51.507Z,13.96
2018-08-18T02:28:51.429Z,13.92
2018-08-18T02:29:51.375Z,13.95
2018-08-18T02:30:51.335Z,13.95
2018-08-18T02:31:51.278Z,13.92
2018-08-18T02:32:51.257Z,13.80
2018-08-18T02:33:51.182Z,13.78
2018-08-18T02:34:51.137Z,13.71
2018-08-18T02:35:51.088Z,13.75
2018-08-18T02:36:51.038Z,13.74
2018-08-18T02:37:51.015Z,13.71
2018-08-18T02:38:50.936Z,13.67
2018-08-18T02:39:50.885Z,13.65
2018-08-18T02:40:50.839Z,13.63
2018-08-18T02:41:50.791Z,13.67
2018-08-18T02:42:50.766Z,13.59
2018-08-18T02:43:50.695Z,13.63
2018-08-18T02:44:50.641Z,13.60
2018-08-18T02:45:50.591Z,13.65
2018-08-18T02:46:50.543Z,13.65
2018-08-18T02:47:50.528Z,13.64
2018-08-18T02:48:50.449Z,13.59
2018-08-18T02:49:50.403Z,13.67
2018-08-18T02:50:50.344Z,13.63
2018-08-18T02:51:50.310Z,13.56
2018-08-18T02:52:50.281Z,13.53
2018-08-18T02:53:50.203Z,13.53
2018-08-18T02:54:50.152Z,13.46
2018-08-18T02:55:50.104Z,13.52
2018-08-18T02:56:50.057Z,13.47
2018-08-18T02:57:50.035Z,13.52
2018-08-18T02:58:49.955Z,13.46
2018-08-18T02:59:49.903Z,13.55
2018-08-18T03:00:49.858Z,13.47
2018-08-18T03:01:49.804Z,13.55
2018-08-18T03:02:49.797Z,13.55
2018-08-18T03:03:49.715Z,13.49
2018-08-18T03:04:49.666Z,13.53
2018-08-18T03:05:49.609Z,13.49
2018-08-18T03:06:49.565Z,13.47
2018-08-18T03:07:49.522Z,13.53
2018-08-18T03:08:49.491Z,13.52
2018-08-18T03:09:49.457Z,13.59
2018-08-18T03:10:49.364Z,13.57
2018-08-18T03:11:49.328Z,13.50
2018-08-18T03:12:49.267Z,13.52
2018-08-18T03:13:49.242Z,13.55
2018-08-18T03:14:49.173Z,13.60
2018-08-18T03:15:49.122Z,13.50
2018-08-18T03:16:49.077Z,13.64
2018-08-18T03:17:49.026Z,13.60
2018-08-18T03:18:49.003Z,13.60
2018-08-18T03:19:48.931Z,13.70
2018-08-18T03:20:48.878Z,13.65
2018-08-18T03:21:48.826Z,13.60
2018-08-18T03:22:48.784Z,13.71
2018-08-18T03:23:48.755Z,13.65
2018-08-18T03:24:48.683Z,13.67
2018-08-18T03:25:48.635Z,13.67
2018-08-18T03:26:48.606Z,13.59
2018-08-18T03:27:48.538Z,13.65
2018-08-18T03:28:48.514Z,13.60
2018-08-18T03:29:48.439Z,13.75
2018-08-18T03:30:48.386Z,13.72
2018-08-18T03:31:48.339Z,13.72
2018-08-18T03:32:48.288Z,13.71
2018-08-18T03:33:48.259Z,13.77
2018-08-18T03:34:48.189Z,13.70
2018-08-18T03:35:48.143Z,13.72
2018-08-18T03:36:48.094Z,13.71
2018-08-18T03:37:48.046Z,13.71
2018-08-18T03:38:48.021Z,13.72
2018-08-18T03:39:47.955Z,13.70
2018-08-18T03:40:47.898Z,13.78
2018-08-18T03:41:47.850Z,13.80
2018-08-18T03:42:47.797Z,13.80
2018-08-18T03:43:47.790Z,13.78
2018-08-18T03:44:47.699Z,13.82
2018-08-18T03:45:47.652Z,13.90
2018-08-18T03:46:47.604Z,13.85
2018-08-18T03:47:47.553Z,13.88
2018-08-18T03:48:47.506Z,13.90
2018-08-18T03:49:47.477Z,13.83
2018-08-18T03:50:47.410Z,13.93
2018-08-18T03:51:47.363Z,13.89
2018-08-18T03:52:47.315Z,13.95
2018-08-18T03:53:47.261Z,13.92
2018-08-18T03:54:47.250Z,14.00
2018-08-18T03:55:47.164Z,13.95
2018-08-18T03:56:47.113Z,13.97
2018-08-18T03:57:47.071Z,14.03
2018-08-18T03:58:47.015Z,13.97
2018-08-18T03:59:46.988Z,14.03
2018-08-18T04:00:46.914Z,14.00
2018-08-18T04:01:46.878Z,14.07
2018-08-18T04:02:46.824Z,14.13
2018-08-18T04:03:46.771Z,14.14
2018-08-18T04:04:46.750Z,14.05
2018-08-18T04:05:46.672Z,14.13
2018-08-18T04:06:46.625Z,14.11
2018-08-18T04:07:46.576Z,14.08
2018-08-18T04:08:46.529Z,14.11
2018-08-18T04:09:46.501Z,14.05
2018-08-18T04:10:46.432Z,14.08
2018-08-18T04:11:46.378Z,14.13
2018-08-18T04:12:46.333Z,14.05
2018-08-18T04:13:46.287Z,14.11
2018-08-18T04:14:46.262Z,14.11
2018-08-18T04:15:46.185Z,14.19
2018-08-18T04:16:46.133Z,14.15
2018-08-18T04:17:46.081Z,14.07
2018-08-18T04:18:46.111Z,14.07
2018-08-18T04:19:46.022Z,14.08
2018-08-18T04:20:45.958Z,14.11
2018-08-18T04:21:45.890Z,14.11
2018-08-18T04:22:45.846Z,14.11
2018-08-18T04:23:45.788Z,14.15
2018-08-18T04:24:45.781Z,14.07
2018-08-18T04:25:45.698Z,14.08
2018-08-18T04:26:45.648Z,14.07
2018-08-18T04:27:45.596Z,14.15
2018-08-18T04:28:45.548Z,14.10
2018-08-18T04:29:45.527Z,14.07
2018-08-18T04:30:45.453Z,14.07
2018-08-18T04:31:45.400Z,14.07
2018-08-18T04:32:45.356Z,14.11
2018-08-18T04:33:45.309Z,14.07
2018-08-18T04:34:45.296Z,14.08
2018-08-18T04:35:45.206Z,14.07
2018-08-18T04:36:45.157Z,14.05
2018-08-18T04:37:45.111Z,14.05
2018-08-18T04:38:45.058Z,14.07
2018-08-18T04:39:45.036Z,14.08
2018-08-18T04:40:44.964Z,14.15
2018-08-18T04:41:44.914Z,14.08
2018-08-18T04:42:44.866Z,14.08
2018-08-18T04:43:44.825Z,14.11
2018-08-18T04:44:44.790Z,14.15
2018-08-18T04:45:44.716Z,14.13
2018-08-18T04:46:44.674Z,14.11
2018-08-18T04:47:44.630Z,14.18
2018-08-18T04:48:44.575Z,14.13
2018-08-18T04:49:44.543Z,14.13
2018-08-18T04:50:44.480Z,14.19
2018-08-18T04:51:44.425Z,14.18
2018-08-18T04:52:44.377Z,14.15
2018-08-18T04:53:44.325Z,14.13
2018-08-18T04:54:44.321Z,14.20
2018-08-18T04:55:44.233Z,14.14
2018-08-18T04:56:44.199Z,14.14
2018-08-18T04:57:44.131Z,14.19
2018-08-18T04:58:44.083Z,14.18
2018-08-18T04:59:44.040Z,14.23
2018-08-18T05:00:44.014Z,14.26
2018-08-18T05:01:43.935Z,14.22
2018-08-18T05:02:43.890Z,14.18
2018-08-18T05:03:43.839Z,14.25
2018-08-18T05:04:43.790Z,14.19
2018-08-18T05:05:43.766Z,14.29
2018-08-18T05:06:43.699Z,14.25
2018-08-18T05:07:43.642Z,14.40
2018-08-18T05:08:43.680Z,14.37
2018-08-18T05:09:43.545Z,14.30
2018-08-18T05:10:43.517Z,14.38
2018-08-18T05:11:43.460Z,14.38
2018-08-18T05:12:43.403Z,14.37
2018-08-18T05:13:43.350Z,14.47
2018-08-18T05:14:43.303Z,14.41
2018-08-18T05:15:43.280Z,14.48
2018-08-18T05:16:43.207Z,14.48
2018-08-18T05:17:43.161Z,14.50
2018-08-18T05:18:43.107Z,14.43
2018-08-18T05:19:43.065Z,14.50
2018-08-18T05:20:43.037Z,14.44
2018-08-18T05:21:42.980Z,14.56
2018-08-18T05:22:42.908Z,14.51
2018-08-18T05:23:42.862Z,14.50
2018-08-18T05:24:42.818Z,14.58
2018-08-18T05:25:42.790Z,14.58
2018-08-18T05:26:42.716Z,14.63
2018-08-18T05:27:42.670Z,14.66
2018-08-18T05:28:42.618Z,14.74
2018-08-18T05:29:42.573Z,14.73
2018-08-18T05:30:42.546Z,14.81
2018-08-18T05:31:42.475Z,14.87
2018-08-18T05:32:42.422Z,14.97
2018-08-18T05:33:42.380Z,15.00
2018-08-18T05:34:42.329Z,15.11
2018-08-18T05:35:42.339Z,15.21
2018-08-18T05:36:42.235Z,15.27
2018-08-18T05:37:42.186Z,15.43
2018-08-18T05:38:42.133Z,15.52
2018-08-18T05:39:42.088Z,15.69
2018-08-18T05:40:42.061Z,15.72
2018-08-18T05:41:41.991Z,15.83
2018-08-18T05:42:41.940Z,15.91
2018-08-18T05:43:41.897Z,15.98
2018-08-18T05:44:41.845Z,16.05
2018-08-18T05:45:41.823Z,16.20
2018-08-18T05:46:41.746Z,16.34
2018-08-18T05:47:41.776Z,16.36
2018-08-18T05:48:41.650Z,16.46
2018-08-18T05:49:41.601Z,16.51
2018-08-18T05:50:41.590Z,16.61
2018-08-18T05:51:41.508Z,16.61
2018-08-18T05:52:41.459Z,16.49
2018-08-18T05:53:41.412Z,16.44
2018-08-18T05:54:41.364Z,16.50
2018-08-18T05:55:41.358Z,16.47
2018-08-18T05:56:41.279Z,16.28
2018-08-18T05:57:41.220Z,16.25
2018-08-18T05:58:41.171Z,16.26
2018-08-18T05:59:41.178Z,16.17
2018-08-18T06:00:41.077Z,16.17
2018-08-18T06:01:41.053Z,16.02
2018-08-18T06:02:40.982Z,16.01
2018-08-18T06:03:40.930Z,16.17
2018-08-18T06:04:40.885Z,16.21
2018-08-18T06:05:40.848Z,16.35
2018-08-18T06:06:40.815Z,16.49
2018-08-18T06:07:40.740Z,16.64
2018-08-18T06:08:40.693Z,16.74
2018-08-18T06:09:40.647Z,16.93
2018-08-18T06:10:40.593Z,16.93
2018-08-18T06:11:40.576Z,17.06
2018-08-18T06:12:40.502Z,17.09
2018-08-18T06:13:40.459Z,17.14
2018-08-18T06:14:40.412Z,17.33
2018-08-18T06:15:40.364Z,17.37
2018-08-18T06:16:40.341Z,17.39
2018-08-18T06:17:40.267Z,17.46
2018-08-18T06:18:40.217Z,17.57
2018-08-18T06:19:40.169Z,17.76
2018-08-18T06:20:40.125Z,17.78
2018-08-18T06:21:40.102Z,17.83
2018-08-18T06:22:40.026Z,17.91
2018-08-18T06:23:39.982Z,18.03
2018-08-18T06:24:39.939Z,18.13
2018-08-18T06:25:39.888Z,18.16
2018-08-18T06:26:39.863Z,18.31
2018-08-18T06:27:39.791Z,18.40
2018-08-18T06:28:39.747Z,18.40
2018-08-18T06:29:39.694Z,18.35
2018-08-18T06:30:39.656Z,18.43
2018-08-18T06:31:39.626Z,18.49
2018-08-18T06:32:39.561Z,18.46
2018-08-18T06:33:39.513Z,18.25
2018-08-18T06:34:39.541Z,18.04
2018-08-18T06:35:39.414Z,18.00
2018-08-18T06:36:39.395Z,17.94
2018-08-18T06:37:39.322Z,18.00
2018-08-18T06:38:39.277Z,18.13
2018-08-18T06:39:39.230Z,18.13
2018-08-18T06:40:39.181Z,18.31
2018-08-18T06:41:39.332Z,18.44
2018-08-18T06:42:39.087Z,18.38
2018-08-18T06:43:39.043Z,18.37
2018-08-18T06:44:38.992Z,18.28
2018-08-18T06:45:38.946Z,18.30
2018-08-18T06:46:38.901Z,18.49
2018-08-18T06:47:38.877Z,18.58
2018-08-18T06:48:38.812Z,18.70
2018-08-18T06:49:38.759Z,18.73
2018-08-18T06:50:38.720Z,18.88
2018-08-18T06:51:38.664Z,19.00
2018-08-18T06:52:38.661Z,19.08
2018-08-18T06:53:38.582Z,19.00
2018-08-18T06:54:38.559Z,18.98
2018-08-18T06:55:38.485Z,19.00
2018-08-18T06:56:38.437Z,18.81
2018-08-18T06:57:38.412Z,18.75
2018-08-18T06:58:38.341Z,18.77
2018-08-18T06:59:38.297Z,18.81
2018-08-18T07:00:38.247Z,18.90
2018-08-18T07:01:38.205Z,18.98
2018-08-18T07:02:38.180Z,19.16
2018-08-18T07:03:38.129Z,19.24
2018-08-18T07:04:38.063Z,19.36
2018-08-18T07:05:38.029Z,19.29
2018-08-18T07:06:37.972Z,19.37
2018-08-18T07:07:37.951Z,19.39
2018-08-18T07:08:37.880Z,19.49
2018-08-18T07:09:37.832Z,19.69
2018-08-18T07:10:37.786Z,19.73
2018-08-18T07:11:37.741Z,19.66
2018-08-18T07:12:37.736Z,19.69
2018-08-18T07:13:37.647Z,19.76
2018-08-18T07:14:37.605Z,19.63
2018-08-18T07:15:37.562Z,19.62
2018-08-18T07:16:37.518Z,19.37
2018-08-18T07:17:37.464Z,19.27
2018-08-18T07:18:37.446Z,19.11
2018-08-18T07:19:37.370Z,19.09
2018-08-18T07:20:37.324Z,18.93
2018-08-18T07:21:37.279Z,18.83
2018-08-18T07:22:37.238Z,18.89
2018-08-18T07:23:37.216Z,18.89
2018-08-18T07:24:37.143Z,18.90
2018-08-18T07:25:37.089Z,18.90
2018-08-18T07:26:37.047Z,19.16
2018-08-18T07:27:37.004Z,19.18
2018-08-18T07:28:37.025Z,19.27
2018-08-18T07:29:36.918Z,19.33
2018-08-18T07:30:36.865Z,19.42
2018-08-18T07:31:36.820Z,19.41
2018-08-18T07:32:36.776Z,19.44
2018-08-18T07:33:36.756Z,19.52
2018-08-18T07:34:36.680Z,19.51
2018-08-18T07:35:36.635Z,19.59
2018-08-18T07:36:36.588Z,19.45
2018-08-18T07:37:36.573Z,19.48
2018-08-18T07:38:36.517Z,19.56
2018-08-18T07:39:36.447Z,19.66
2018-08-18T07:40:36.406Z,19.62
2018-08-18T07:41:36.356Z,19.69
2018-08-18T07:42:36.320Z,19.67
2018-08-18T07:43:36.289Z,19.73
2018-08-18T07:44:36.221Z,19.78
2018-08-18T07:45:36.176Z,19.70
2018-08-18T07:46:36.133Z,19.84
2018-08-18T07:47:36.086Z,19.88
2018-08-18T07:48:36.061Z,19.92
2018-08-18T07:49:35.990Z,19.85
2018-08-18T07:50:35.949Z,19.97
2018-08-18T07:51:35.897Z,19.96
2018-08-18T07:52:35.860Z,20.03
2018-08-18T07:53:35.905Z,20.00
2018-08-18T07:54:35.762Z,19.96
2018-08-18T07:55:35.725Z,20.01
2018-08-18T07:56:35.672Z,20.00
2018-08-18T07:57:35.627Z,19.99
2018-08-18T07:58:35.602Z,19.92
2018-08-18T07:59:35.599Z,19.94
2018-08-18T08:00:35.491Z,19.96
2018-08-18T08:01:35.442Z,19.91
2018-08-18T08:02:35.396Z,19.91
2018-08-18T08:03:35.390Z,19.96
2018-08-18T08:04:35.318Z,20.18
2018-08-18T08:05:35.268Z,20.28
2018-08-18T08:06:35.218Z,20.36
2018-08-18T08:07:35.179Z,20.52
2018-08-18T08:08:35.121Z,20.56
2018-08-18T08:09:35.101Z,20.65
2018-08-18T08:10:35.045Z,20.63
2018-08-18T08:11:34.988Z,20.65
2018-08-18T08:12:35.008Z,20.59
2018-08-18T08:13:34.902Z,20.66
2018-08-18T08:14:34.874Z,20.63
2018-08-18T08:15:34.802Z,20.67
2018-08-18T08:16:34.772Z,20.67
2018-08-18T08:17:34.775Z,20.65
2018-08-18T08:18:34.668Z,20.63
2018-08-18T08:19:34.651Z,20.55
2018-08-18T08:20:34.577Z,20.62
2018-08-18T08:21:34.530Z,20.56
2018-08-18T08:22:34.496Z,20.69
2018-08-18T08:23:34.439Z,20.71
2018-08-18T08:24:34.423Z,20.75
2018-08-18T08:25:34.363Z,20.75
2018-08-18T08:26:34.304Z,20.69
2018-08-18T08:27:34.258Z,20.69
2018-08-18T08:28:34.213Z,20.62
2018-08-18T08:29:34.203Z,20.66
2018-08-18T08:30:34.124Z,20.71
2018-08-18T08:31:34.078Z,20.67
2018-08-18T08:32:34.061Z,20.75
2018-08-18T08:33:33.993Z,20.81
2018-08-18T08:34:33.974Z,20.82
2018-08-18T08:35:33.896Z,20.87
2018-08-18T08:36:33.852Z,20.85
2018-08-18T08:37:33.811Z,20.97
2018-08-18T08:38:33.766Z,20.97
2018-08-18T08:39:33.757Z,20.85
2018-08-18T08:40:33.670Z,21.00
2018-08-18T08:41:33.623Z,21.03
2018-08-18T08:42:33.584Z,21.14
2018-08-18T08:43:33.541Z,21.18
2018-08-18T08:44:33.523Z,21.14
2018-08-18T08:45:33.454Z,21.05
2018-08-18T08:46:33.400Z,21.11
2018-08-18T08:47:33.360Z,21.18
2018-08-18T08:48:33.309Z,21.26
2018-08-18T08:49:33.285Z,21.33
2018-08-18T08:50:33.216Z,21.40
2018-08-18T08:51:33.171Z,21.47
2018-08-18T08:52:33.140Z,21.47
2018-08-18T08:53:33.089Z,21.65
2018-08-18T08:54:33.058Z,21.74
2018-08-18T08:55:32.992Z,21.72
2018-08-18T08:56:32.951Z,21.72
2018-08-18T08:57:32.894Z,21.57
2018-08-18T08:58:32.857Z,21.59
2018-08-18T08:59:32.836Z,21.66
2018-08-18T09:00:32.765Z,21.58
2018-08-18T09:01:32.724Z,21.70
2018-08-18T09:02:32.682Z,21.72
2018-08-18T09:03:32.628Z,21.69
2018-08-18T09:04:32.610Z,21.79
2018-08-18T09:05:32.539Z,21.81
2018-08-18T09:06:32.495Z,21.82
2018-08-18T09:07:32.451Z,21.84
2018-08-18T09:08:32.407Z,21.74
2018-08-18T09:09:32.389Z,21.77
2018-08-18T09:10:32.313Z,21.70
2018-08-18T09:11:32.270Z,21.82
2018-08-18T09:12:32.229Z,21.70
2018-08-18T09:13:32.180Z,21.73
2018-08-18T09:14:32.160Z,21.72
2018-08-18T09:15:32.090Z,21.77
2018-08-18T09:16:32.048Z,21.81
2018-08-18T09:17:32.002Z,21.95
2018-08-18T09:18:31.958Z,21.90
2018-08-18T09:19:31.932Z,22.03
2018-08-18T09:20:31.871Z,22.05
2018-08-18T09:21:31.822Z,22.07
2018-08-18T09:22:31.776Z,22.20
2018-08-18T09:23:31.735Z,22.15
2018-08-18T09:24:31.732Z,22.17
2018-08-18T09:25:31.641Z,22.08
2018-08-18T09:26:31.671Z,22.07
2018-08-18T09:27:31.556Z,22.01
2018-08-18T09:28:31.509Z,22.05
2018-08-18T09:29:31.465Z,22.11
2018-08-18T09:30:31.444Z,22.25
2018-08-18T09:31:31.378Z,22.23
2018-08-18T09:32:31.331Z,22.32
2018-08-18T09:33:31.283Z,22.36
2018-08-18T09:34:31.244Z,22.44
2018-08-18T09:35:31.216Z,22.45
2018-08-18T09:36:31.153Z,22.62
2018-08-18T09:37:31.111Z,22.59
2018-08-18T09:38:31.067Z,22.68
2018-08-18T09:39:31.022Z,22.78
2018-08-18T09:40:31.005Z,22.77
2018-08-18T09:41:30.935Z,22.77
2018-08-18T09:42:30.889Z,22.75
2018-08-18T09:43:30.844Z,22.84
2018-08-18T09:44:30.798Z,22.81
2018-08-18T09:45:30.812Z,22.80
2018-08-18T09:46:30.704Z,22.73
2018-08-18T09:47:30.671Z,22.80
2018-08-18T09:48:30.619Z,22.81
2018-08-18T09:49:30.574Z,22.80
2018-08-18T09:50:30.563Z,22.80
2018-08-18T09:51:30.489Z,22.87
2018-08-18T09:52:30.447Z,22.84
2018-08-18T09:53:30.406Z,22.85
2018-08-18T09:54:30.365Z,23.00
2018-08-18T09:55:30.345Z,22.98
2018-08-18T09:56:30.269Z,22.96
2018-08-18T09:57:30.227Z,22.88
2018-08-18T09:58:30.180Z,22.88
2018-08-18T09:59:30.137Z,22.85
2018-08-18T10:00:30.120Z,22.87
2018-08-18T10:01:30.048Z,22.88
2018-08-18T10:02:30.007Z,23.00
2018-08-18T10:03:29.958Z,23.02
2018-08-18T10:04:29.920Z,23.17
2018-08-18T10:05:29.899Z,23.25
2018-08-18T10:06:29.875Z,23.38
2018-08-18T10:07:29.785Z,23.46
2018-08-18T10:08:29.745Z,23.53
2018-08-18T10:09:29.694Z,23.52
2018-08-18T10:10:29.684Z,23.66
2018-08-18T10:11:29.614Z,23.73
2018-08-18T10:12:29.571Z,23.73
2018-08-18T10:13:29.526Z,23.70
2018-08-18T10:14:29.475Z,23.55
2018-08-18T10:15:29.476Z,23.46
2018-08-18T10:16:29.391Z,23.37
2018-08-18T10:17:29.346Z,23.27
2018-08-18T10:18:29.306Z,23.21
2018-08-18T10:19:29.260Z,23.14
2018-08-18T10:20:29.244Z,23.07
2018-08-18T10:21:29.170Z,22.91
2018-08-18T10:22:29.137Z,23.02
2018-08-18T10:23:29.098Z,22.99
2018-08-18T10:24:29.040Z,23.00
2018-08-18T10:25:29.028Z,22.99
2018-08-18T10:26:28.951Z,22.96
2018-08-18T10:27:28.907Z,22.87
2018-08-18T10:28:28.866Z,22.90
2018-08-18T10:29:28.823Z,22.80
2018-08-18T10:30:28.806Z,22.78
2018-08-18T10:31:28.732Z,22.68
2018-08-18T10:32:28.701Z,22.65
2018-08-18T10:33:28.644Z,22.51
2018-08-18T10:34:28.638Z,22.65
2018-08-18T10:35:28.585Z,22.62
2018-08-18T10:36:28.517Z,22.56
2018-08-18T10:37:28.496Z,22.56
2018-08-18T10:38:28.429Z,22.68
2018-08-18T10:39:28.376Z,22.69
2018-08-18T10:40:28.378Z,22.69
2018-08-18T10:41:28.291Z,22.81
2018-08-18T10:42:28.251Z,22.81
2018-08-18T10:43:28.203Z,22.81
2018-08-18T10:44:28.160Z,22.90
2018-08-18T10:45:28.115Z,22.88
2018-08-18T10:46:28.094Z,22.81
2018-08-18T10:47:28.026Z,22.83
2018-08-18T10:48:27.985Z,22.95
2018-08-18T10:49:27.939Z,22.98
2018-08-18T10:50:27.899Z,23.10
2018-08-18T10:51:27.906Z,23.21
2018-08-18T10:52:27.809Z,23.20
2018-08-18T10:53:27.763Z,23.20
2018-08-18T10:54:27.723Z,23.13
2018-08-18T10:55:27.675Z,23.13
2018-08-18T10:56:27.652Z,23.02
2018-08-18T10:57:27.582Z,23.02
2018-08-18T10:58:27.561Z,23.03
2018-08-18T10:59:27.499Z,23.09
2018-08-18T11:00:27.456Z,23.18
2018-08-18T11:01:27.432Z,23.20
2018-08-18T11:02:27.369Z,23.22
2018-08-18T11:03:27.324Z,23.28
2018-08-18T11:04:27.284Z,23.28
2018-08-18T11:05:27.229Z,23.31
2018-08-18T11:06:27.261Z,23.36
2018-08-18T11:07:27.145Z,23.31
2018-08-18T11:08:27.103Z,23.36
2018-08-18T11:09:27.055Z,23.37
2018-08-18T11:10:27.018Z,23.40
2018-08-18T11:11:26.975Z,23.38
2018-08-18T11:12:26.950Z,23.40
2018-08-18T11:13:26.880Z,23.31
2018-08-18T11:14:26.839Z,23.40
2018-08-18T11:15:26.795Z,23.28
2018-08-18T11:16:26.764Z,23.37
2018-08-18T11:17:26.741Z,23.34
2018-08-18T11:18:26.668Z,23.24
2018-08-18T11:19:26.671Z,23.31
2018-08-18T11:20:26.582Z,23.37
2018-08-18T11:21:26.526Z,23.48
2018-08-18T11:22:26.507Z,23.48
2018-08-18T11:23:26.440Z,23.59
2018-08-18T11:24:26.397Z,23.61
2018-08-18T11:25:26.359Z,23.58
2018-08-18T11:26:26.320Z,23.61
2018-08-18T11:27:26.286Z,23.62
2018-08-18T11:28:26.302Z,23.61
2018-08-18T11:29:26.177Z,23.62
2018-08-18T11:30:26.134Z,23.63
2018-08-18T11:31:26.090Z,23.58
2018-08-18T11:32:26.071Z,23.47
2018-08-18T11:33:26.004Z,23.59
2018-08-18T11:34:25.976Z,23.47
2018-08-18T11:35:25.942Z,23.56
2018-08-18T11:36:25.875Z,23.59
2018-08-18T11:37:25.850Z,23.56
2018-08-18T11:38:25.785Z,23.61
2018-08-18T11:39:25.738Z,23.71
2018-08-18T11:40:25.696Z,23.70
2018-08-18T11:41:25.666Z,23.73
2018-08-18T11:42:25.642Z,23.80
2018-08-18T11:43:25.568Z,23.73
2018-08-18T11:44:25.555Z,23.78
2018-08-18T11:45:25.476Z,23.80
2018-08-18T11:46:25.431Z,23.78
2018-08-18T11:47:25.388Z,23.92
2018-08-18T11:48:25.377Z,23.90
2018-08-18T11:49:25.321Z,23.92
2018-08-18T11:50:25.260Z,23.99
2018-08-18T11:51:25.215Z,23.89
2018-08-18T11:52:25.166Z,23.86
2018-08-18T11:53:25.148Z,23.78
2018-08-18T11:54:25.098Z,23.77
2018-08-18T11:55:25.032Z,23.70
2018-08-18T11:56:24.990Z,23.76
2018-08-18T11:57:24.945Z,23.83
2018-08-18T11:58:24.949Z,23.90
2018-08-18T11:59:24.856Z,23.92
2018-08-18T12:00:24.819Z,23.92
2018-08-18T12:01:24.778Z,23.92
2018-08-18T12:02:24.738Z,23.96
2018-08-18T12:03:24.720Z,23.95
2018-08-18T12:04:24.699Z,23.88
2018-08-18T12:05:24.592Z,23.95
2018-08-18T12:06:24.590Z,23.95
2018-08-18T12:07:24.535Z,24.00
2018-08-18T12:08:24.501Z,23.90
2018-08-18T12:09:24.422Z,23.96
2018-08-18T12:10:24.378Z,23.96
2018-08-18T12:11:24.336Z,24.03
2018-08-18T12:12:24.288Z,24.02
2018-08-18T12:13:24.270Z,24.08
2018-08-18T12:14:24.200Z,24.26
2018-08-18T12:15:24.166Z,24.25
2018-08-18T12:16:24.105Z,24.26
2018-08-18T12:17:24.069Z,24.18
2018-08-18T12:18:24.068Z,24.20
2018-08-18T12:19:24.005Z,24.25
2018-08-18T12:20:24.019Z,24.23
2018-08-18T12:21:23.889Z,24.26
2018-08-18T12:22:24.181Z,24.32
2018-08-18T12:23:23.846Z,24.30
2018-08-18T12:24:23.760Z,24.30
2018-08-18T12:25:23.716Z,24.35
2018-08-18T12:26:23.670Z,24.43
2018-08-18T12:27:23.632Z,24.48
2018-08-18T12:28:23.585Z,24.45
2018-08-18T12:29:23.600Z,24.37
2018-08-18T12:30:23.493Z,24.40
2018-08-18T12:31:23.451Z,24.44
2018-08-18T12:32:23.409Z,24.44
2018-08-18T12:33:23.360Z,24.45
2018-08-18T12:34:23.342Z,24.45
2018-08-18T12:35:23.274Z,24.44
2018-08-18T12:36:23.275Z,24.36
2018-08-18T12:37:23.198Z,24.37
2018-08-18T12:38:23.144Z,24.35
2018-08-18T12:39:23.132Z,24.36
2018-08-18T12:40:23.054Z,24.36
2018-08-18T12:41:23.010Z,24.36
2018-08-18T12:42:22.971Z,24.35
2018-08-18T12:43:22.935Z,24.30
2018-08-18T12:44:22.909Z,24.39
2018-08-18T12:45:22.838Z,24.39
2018-08-18T12:46:22.796Z,24.45
2018-08-18T12:47:22.752Z,24.44
2018-08-18T12:48:22.712Z,24.48
2018-08-18T12:49:22.683Z,24.45
2018-08-18T12:50:22.616Z,24.44
2018-08-18T12:51:22.590Z,24.55
2018-08-18T12:52:22.537Z,24.51